sensor_id;sensor_type;location;lat;lon;timestamp;pressure;altitude;pressure_sealevel;temperature
70050;BMP180;57391;51.306;22.680;2022-09-21T00:01:23;99655.00;;;9.30
70050;BMP180;57391;51.306;22.680;2022-09-21T00:04:00;99659.40;;;9.30
70050;BMP180;57391;51.306;22.680;2022-09-21T00:06:32;99656.40;;;9.30
70050;BMP180;57391;51.306;22.680;2022-09-21T00:09:00;99657.40;;;9.20
70050;BMP180;57391;51.306;22.680;2022-09-21T00:11:31;99660.00;;;9.20
70050;BMP180;57391;51.306;22.680;2022-09-21T00:14:03;99656.00;;;9.20
70050;BMP180;57391;51.306;22.680;2022-09-21T00:16:32;99658.80;;;9.20
70050;BMP180;57391;51.306;22.680;2022-09-21T00:18:59;99662.80;;;9.10
70050;BMP180;57391;51.306;22.680;2022-09-21T00:21:27;99660.00;;;9.10
70050;BMP180;57391;51.306;22.680;2022-09-21T00:23:54;99661.00;;;9.10
70050;BMP180;57391;51.306;22.680;2022-09-21T00:26:24;99663.20;;;9.10
70050;BMP180;57391;51.306;22.680;2022-09-21T00:28:57;99663.80;;;9.10
70050;BMP180;57391;51.306;22.680;2022-09-21T00:31:26;99667.20;;;9.10
70050;BMP180;57391;51.306;22.680;2022-09-21T00:33:54;99666.60;;;9.10
70050;BMP180;57391;51.306;22.680;2022-09-21T00:36:23;99666.80;;;9.18
70050;BMP180;57391;51.306;22.680;2022-09-21T00:39:01;99670.60;;;9.20
70050;BMP180;57391;51.306;22.680;2022-09-21T00:41:32;99673.40;;;9.20
70050;BMP180;57391;51.306;22.680;2022-09-21T00:46:46;99675.40;;;9.30
70050;BMP180;57391;51.306;22.680;2022-09-21T00:49:15;99671.00;;;9.30
70050;BMP180;57391;51.306;22.680;2022-09-21T00:51:44;99681.20;;;9.36
70050;BMP180;57391;51.306;22.680;2022-09-21T00:54:22;99682.00;;;9.40
70050;BMP180;57391;51.306;22.680;2022-09-21T00:56:53;99682.20;;;9.40
70050;BMP180;57391;51.306;22.680;2022-09-21T00:59:21;99685.40;;;9.44
70050;BMP180;57391;51.306;22.680;2022-09-21T01:01:49;99683.00;;;9.50
70050;BMP180;57391;51.306;22.680;2022-09-21T01:04:17;99680.40;;;9.50
70050;BMP180;57391;51.306;22.680;2022-09-21T01:06:45;99678.00;;;9.50
70050;BMP180;57391;51.306;22.680;2022-09-21T01:09:14;99679.00;;;9.60
70050;BMP180;57391;51.306;22.680;2022-09-21T01:14:56;99678.60;;;9.62
70050;BMP180;57391;51.306;22.680;2022-09-21T01:35:18;99688.00;;;9.70
70050;BMP180;57391;51.306;22.680;2022-09-21T01:37:54;99690.60;;;9.70
70050;BMP180;57391;51.306;22.680;2022-09-21T01:40:29;99689.80;;;9.70
70050;BMP180;57391;51.306;22.680;2022-09-21T01:42:59;99690.80;;;9.70
70050;BMP180;57391;51.306;22.680;2022-09-21T01:45:38;99692.00;;;9.70
70050;BMP180;57391;51.306;22.680;2022-09-21T01:48:07;99689.80;;;9.70
70050;BMP180;57391;51.306;22.680;2022-09-21T01:50:42;99695.00;;;9.70
70050;BMP180;57391;51.306;22.680;2022-09-21T01:53:40;99695.80;;;9.70
70050;BMP180;57391;51.306;22.680;2022-09-21T01:56:36;99697.20;;;9.70
70050;BMP180;57391;51.306;22.680;2022-09-21T01:59:21;99701.40;;;9.70
70050;BMP180;57391;51.306;22.680;2022-09-21T02:02:10;99704.80;;;9.70
70050;BMP180;57391;51.306;22.680;2022-09-21T02:04:39;99709.80;;;9.74
70050;BMP180;57391;51.306;22.680;2022-09-21T02:07:07;99710.40;;;9.70
70050;BMP180;57391;51.306;22.680;2022-09-21T02:09:35;99707.40;;;9.72
70050;BMP180;57391;51.306;22.680;2022-09-21T02:12:03;99708.40;;;9.76
70050;BMP180;57391;51.306;22.680;2022-09-21T02:14:32;99708.60;;;9.80
70050;BMP180;57391;51.306;22.680;2022-09-21T02:17:49;99702.80;;;9.80
70050;BMP180;57391;51.306;22.680;2022-09-21T02:20:30;99695.40;;;9.80
70050;BMP180;57391;51.306;22.680;2022-09-21T02:25:58;99695.60;;;9.80
70050;BMP180;57391;51.306;22.680;2022-09-21T02:28:39;99698.60;;;9.82
70050;BMP180;57391;51.306;22.680;2022-09-21T02:31:42;99698.20;;;9.82
70050;BMP180;57391;51.306;22.680;2022-09-21T02:34:32;99703.20;;;9.80
70050;BMP180;57391;51.306;22.680;2022-09-21T02:42:47;99709.80;;;9.86
70050;BMP180;57391;51.306;22.680;2022-09-21T02:45:26;99710.20;;;9.90
70050;BMP180;57391;51.306;22.680;2022-09-21T02:50:46;99712.20;;;9.90
70050;BMP180;57391;51.306;22.680;2022-09-21T02:53:22;99711.20;;;9.90
70050;BMP180;57391;51.306;22.680;2022-09-21T02:55:54;99717.00;;;9.90
70050;BMP180;57391;51.306;22.680;2022-09-21T02:58:25;99715.80;;;9.94
70050;BMP180;57391;51.306;22.680;2022-09-21T03:00:56;99718.20;;;10.00
70050;BMP180;57391;51.306;22.680;2022-09-21T03:03:24;99710.60;;;10.00
70050;BMP180;57391;51.306;22.680;2022-09-21T03:05:54;99717.00;;;10.00
70050;BMP180;57391;51.306;22.680;2022-09-21T03:08:21;99716.40;;;10.00
70050;BMP180;57391;51.306;22.680;2022-09-21T03:10:48;99712.00;;;10.00
70050;BMP180;57391;51.306;22.680;2022-09-21T03:13:17;99714.80;;;10.00
70050;BMP180;57391;51.306;22.680;2022-09-21T03:15:45;99719.80;;;10.00
70050;BMP180;57391;51.306;22.680;2022-09-21T03:18:12;99718.00;;;10.04
70050;BMP180;57391;51.306;22.680;2022-09-21T03:20:43;99719.00;;;10.10
70050;BMP180;57391;51.306;22.680;2022-09-21T03:23:13;99721.20;;;10.06
70050;BMP180;57391;51.306;22.680;2022-09-21T03:25:43;99718.20;;;10.04
70050;BMP180;57391;51.306;22.680;2022-09-21T03:28:13;99724.80;;;10.00
70050;BMP180;57391;51.306;22.680;2022-09-21T03:30:41;99729.60;;;10.04
70050;BMP180;57391;51.306;22.680;2022-09-21T03:33:09;99731.20;;;10.02
70050;BMP180;57391;51.306;22.680;2022-09-21T03:35:36;99732.40;;;10.00
70050;BMP180;57391;51.306;22.680;2022-09-21T03:38:03;99734.00;;;10.00
70050;BMP180;57391;51.306;22.680;2022-09-21T03:40:31;99733.60;;;10.04
70050;BMP180;57391;51.306;22.680;2022-09-21T03:42:59;99733.60;;;10.08
70050;BMP180;57391;51.306;22.680;2022-09-21T03:45:26;99739.00;;;10.06
70050;BMP180;57391;51.306;22.680;2022-09-21T03:47:58;99738.20;;;10.10
70050;BMP180;57391;51.306;22.680;2022-09-21T03:50:27;99734.80;;;10.10
70050;BMP180;57391;51.306;22.680;2022-09-21T03:52:57;99732.60;;;10.10
70050;BMP180;57391;51.306;22.680;2022-09-21T03:55:25;99734.20;;;10.10
70050;BMP180;57391;51.306;22.680;2022-09-21T03:57:52;99732.40;;;10.10
70050;BMP180;57391;51.306;22.680;2022-09-21T04:00:20;99735.60;;;10.10
70050;BMP180;57391;51.306;22.680;2022-09-21T04:02:47;99737.60;;;10.10
70050;BMP180;57391;51.306;22.680;2022-09-21T04:05:15;99739.60;;;10.10
70050;BMP180;57391;51.306;22.680;2022-09-21T04:07:44;99736.80;;;10.10
70050;BMP180;57391;51.306;22.680;2022-09-21T04:10:18;99745.80;;;10.10
70050;BMP180;57391;51.306;22.680;2022-09-21T04:12:46;99738.60;;;10.14
70050;BMP180;57391;51.306;22.680;2022-09-21T04:15:17;99741.40;;;10.12
70050;BMP180;57391;51.306;22.680;2022-09-21T04:17:50;99745.60;;;10.14
70050;BMP180;57391;51.306;22.680;2022-09-21T04:20:19;99747.20;;;10.18
70050;BMP180;57391;51.306;22.680;2022-09-21T04:22:47;99742.80;;;10.20
70050;BMP180;57391;51.306;22.680;2022-09-21T04:25:16;99745.20;;;10.20
70050;BMP180;57391;51.306;22.680;2022-09-21T04:27:43;99749.00;;;10.20
70050;BMP180;57391;51.306;22.680;2022-09-21T04:30:13;99749.40;;;10.30
70050;BMP180;57391;51.306;22.680;2022-09-21T04:32:40;99748.80;;;10.30
70050;BMP180;57391;51.306;22.680;2022-09-21T04:35:08;99747.80;;;10.30
70050;BMP180;57391;51.306;22.680;2022-09-21T04:37:35;99753.60;;;10.30
70050;BMP180;57391;51.306;22.680;2022-09-21T04:40:04;99752.80;;;10.32
70050;BMP180;57391;51.306;22.680;2022-09-21T04:42:31;99752.40;;;10.30
70050;BMP180;57391;51.306;22.680;2022-09-21T04:44:59;99748.20;;;10.32
70050;BMP180;57391;51.306;22.680;2022-09-21T04:47:45;99753.00;;;10.40
70050;BMP180;57391;51.306;22.680;2022-09-21T04:50:13;99755.40;;;10.40
70050;BMP180;57391;51.306;22.680;2022-09-21T04:52:41;99756.80;;;10.40
70050;BMP180;57391;51.306;22.680;2022-09-21T04:55:08;99751.20;;;10.40
70050;BMP180;57391;51.306;22.680;2022-09-21T04:57:35;99756.00;;;10.40
70050;BMP180;57391;51.306;22.680;2022-09-21T05:00:04;99755.20;;;10.40
70050;BMP180;57391;51.306;22.680;2022-09-21T05:02:32;99757.20;;;10.40
70050;BMP180;57391;51.306;22.680;2022-09-21T05:04:59;99761.40;;;10.40
70050;BMP180;57391;51.306;22.680;2022-09-21T05:07:26;99759.20;;;10.40
70050;BMP180;57391;51.306;22.680;2022-09-21T05:09:53;99763.20;;;10.40
70050;BMP180;57391;51.306;22.680;2022-09-21T05:12:33;99765.20;;;10.44
70050;BMP180;57391;51.306;22.680;2022-09-21T05:15:01;99761.60;;;10.48
70050;BMP180;57391;51.306;22.680;2022-09-21T05:17:28;99759.80;;;10.50
70050;BMP180;57391;51.306;22.680;2022-09-21T05:19:55;99760.80;;;10.50
70050;BMP180;57391;51.306;22.680;2022-09-21T05:22:22;99765.20;;;10.50
70050;BMP180;57391;51.306;22.680;2022-09-21T05:24:49;99756.20;;;10.50
70050;BMP180;57391;51.306;22.680;2022-09-21T05:27:16;99765.40;;;10.50
70050;BMP180;57391;51.306;22.680;2022-09-21T05:29:44;99764.20;;;10.50
70050;BMP180;57391;51.306;22.680;2022-09-21T05:32:26;99769.80;;;10.54
70050;BMP180;57391;51.306;22.680;2022-09-21T05:38:27;99771.40;;;10.60
70050;BMP180;57391;51.306;22.680;2022-09-21T05:40:55;99774.20;;;10.60
70050;BMP180;57391;51.306;22.680;2022-09-21T05:43:22;99773.00;;;10.60
70050;BMP180;57391;51.306;22.680;2022-09-21T05:46:03;99779.20;;;10.60
70050;BMP180;57391;51.306;22.680;2022-09-21T05:48:42;99784.00;;;10.60
70050;BMP180;57391;51.306;22.680;2022-09-21T05:51:37;99787.80;;;10.60
70050;BMP180;57391;51.306;22.680;2022-09-21T05:57:18;99787.20;;;10.66
70050;BMP180;57391;51.306;22.680;2022-09-21T06:00:10;99790.80;;;10.70
70050;BMP180;57391;51.306;22.680;2022-09-21T06:05:33;99789.60;;;10.70
70050;BMP180;57391;51.306;22.680;2022-09-21T06:08:00;99791.60;;;10.70
70050;BMP180;57391;51.306;22.680;2022-09-21T06:10:32;99791.00;;;10.70
70050;BMP180;57391;51.306;22.680;2022-09-21T06:13:00;99791.40;;;10.70
70050;BMP180;57391;51.306;22.680;2022-09-21T06:15:27;99788.20;;;10.70
70050;BMP180;57391;51.306;22.680;2022-09-21T06:17:54;99793.40;;;10.70
70050;BMP180;57391;51.306;22.680;2022-09-21T06:20:23;99796.80;;;10.70
70050;BMP180;57391;51.306;22.680;2022-09-21T06:22:50;99801.00;;;10.70
70050;BMP180;57391;51.306;22.680;2022-09-21T06:25:17;99798.40;;;10.70
70050;BMP180;57391;51.306;22.680;2022-09-21T06:27:45;99796.40;;;10.76
70050;BMP180;57391;51.306;22.680;2022-09-21T06:30:12;99801.20;;;10.80
70050;BMP180;57391;51.306;22.680;2022-09-21T06:33:01;99798.00;;;10.80
70050;BMP180;57391;51.306;22.680;2022-09-21T06:35:29;99800.00;;;10.80
70050;BMP180;57391;51.306;22.680;2022-09-21T06:38:04;99800.40;;;10.80
70050;BMP180;57391;51.306;22.680;2022-09-21T06:40:33;99797.60;;;10.80
70050;BMP180;57391;51.306;22.680;2022-09-21T06:43:04;99796.80;;;10.86
70050;BMP180;57391;51.306;22.680;2022-09-21T06:45:32;99802.40;;;10.90
70050;BMP180;57391;51.306;22.680;2022-09-21T06:47:59;99801.40;;;10.90
70050;BMP180;57391;51.306;22.680;2022-09-21T06:50:26;99803.20;;;10.90
70050;BMP180;57391;51.306;22.680;2022-09-21T06:52:53;99804.00;;;10.90
70050;BMP180;57391;51.306;22.680;2022-09-21T06:55:20;99806.20;;;10.90
70050;BMP180;57391;51.306;22.680;2022-09-21T06:57:48;99803.80;;;11.00
70050;BMP180;57391;51.306;22.680;2022-09-21T07:00:17;99804.00;;;11.00
70050;BMP180;57391;51.306;22.680;2022-09-21T07:02:44;99810.20;;;11.00
70050;BMP180;57391;51.306;22.680;2022-09-21T07:05:12;99813.80;;;11.00
70050;BMP180;57391;51.306;22.680;2022-09-21T07:07:39;99810.00;;;11.00
70050;BMP180;57391;51.306;22.680;2022-09-21T07:10:07;99816.20;;;11.00
70050;BMP180;57391;51.306;22.680;2022-09-21T07:12:34;99820.80;;;11.04
70050;BMP180;57391;51.306;22.680;2022-09-21T07:15:04;99812.00;;;11.02
70050;BMP180;57391;51.306;22.680;2022-09-21T07:17:37;99814.40;;;11.08
70050;BMP180;57391;51.306;22.680;2022-09-21T07:20:06;99823.00;;;11.10
70050;BMP180;57391;51.306;22.680;2022-09-21T07:22:34;99819.00;;;11.10
70050;BMP180;57391;51.306;22.680;2022-09-21T07:25:04;99822.80;;;11.10
70050;BMP180;57391;51.306;22.680;2022-09-21T07:27:32;99821.40;;;11.10
70050;BMP180;57391;51.306;22.680;2022-09-21T07:30:00;99826.60;;;11.10
70050;BMP180;57391;51.306;22.680;2022-09-21T07:32:27;99826.60;;;11.16
70050;BMP180;57391;51.306;22.680;2022-09-21T07:34:54;99831.00;;;11.20
70050;BMP180;57391;51.306;22.680;2022-09-21T07:37:24;99830.20;;;11.20
70050;BMP180;57391;51.306;22.680;2022-09-21T07:39:52;99829.20;;;11.20
70050;BMP180;57391;51.306;22.680;2022-09-21T07:42:20;99830.80;;;11.20
70050;BMP180;57391;51.306;22.680;2022-09-21T07:44:49;99830.60;;;11.20
70050;BMP180;57391;51.306;22.680;2022-09-21T07:47:16;99833.00;;;11.20
70050;BMP180;57391;51.306;22.680;2022-09-21T07:49:43;99836.80;;;11.20
70050;BMP180;57391;51.306;22.680;2022-09-21T07:52:10;99838.60;;;11.24
70050;BMP180;57391;51.306;22.680;2022-09-21T07:54:37;99838.20;;;11.22
70050;BMP180;57391;51.306;22.680;2022-09-21T07:57:04;99842.40;;;11.20
70050;BMP180;57391;51.306;22.680;2022-09-21T07:59:50;99842.60;;;11.20
70050;BMP180;57391;51.306;22.680;2022-09-21T08:02:17;99842.40;;;11.20
70050;BMP180;57391;51.306;22.680;2022-09-21T08:04:44;99840.20;;;11.20
70050;BMP180;57391;51.306;22.680;2022-09-21T08:07:11;99844.20;;;11.20
70050;BMP180;57391;51.306;22.680;2022-09-21T08:09:38;99842.20;;;11.22
70050;BMP180;57391;51.306;22.680;2022-09-21T08:12:07;99842.20;;;11.30
70050;BMP180;57391;51.306;22.680;2022-09-21T08:14:35;99844.00;;;11.30
70050;BMP180;57391;51.306;22.680;2022-09-21T08:17:03;99847.00;;;11.38
70050;BMP180;57391;51.306;22.680;2022-09-21T08:19:30;99847.60;;;11.40
70050;BMP180;57391;51.306;22.680;2022-09-21T08:21:57;99845.60;;;11.46
70050;BMP180;57391;51.306;22.680;2022-09-21T08:24:24;99848.40;;;11.50
70050;BMP180;57391;51.306;22.680;2022-09-21T08:26:54;99857.40;;;11.60
70050;BMP180;57391;51.306;22.680;2022-09-21T08:29:23;99857.20;;;11.70
70050;BMP180;57391;51.306;22.680;2022-09-21T08:31:51;99859.60;;;11.80
70050;BMP180;57391;51.306;22.680;2022-09-21T08:34:19;99858.40;;;11.84
70050;BMP180;57391;51.306;22.680;2022-09-21T08:36:46;99858.40;;;11.90
70050;BMP180;57391;51.306;22.680;2022-09-21T08:39:12;99861.40;;;11.92
70050;BMP180;57391;51.306;22.680;2022-09-21T08:41:56;99859.00;;;12.00
70050;BMP180;57391;51.306;22.680;2022-09-21T08:44:32;99861.80;;;12.00
70050;BMP180;57391;51.306;22.680;2022-09-21T08:47:22;99854.20;;;12.00
70050;BMP180;57391;51.306;22.680;2022-09-21T08:49:57;99865.40;;;12.00
70050;BMP180;57391;51.306;22.680;2022-09-21T08:52:25;99866.20;;;12.00
70050;BMP180;57391;51.306;22.680;2022-09-21T08:55:02;99865.20;;;12.00
70050;BMP180;57391;51.306;22.680;2022-09-21T08:57:32;99861.00;;;12.00
70050;BMP180;57391;51.306;22.680;2022-09-21T09:00:02;99866.20;;;12.00
70050;BMP180;57391;51.306;22.680;2022-09-21T09:06:01;99865.80;;;11.96
70050;BMP180;57391;51.306;22.680;2022-09-21T09:09:04;99865.60;;;11.96
70050;BMP180;57391;51.306;22.680;2022-09-21T09:17:31;99875.60;;;12.00
70050;BMP180;57391;51.306;22.680;2022-09-21T09:20:33;99877.80;;;12.00
70050;BMP180;57391;51.306;22.680;2022-09-21T09:23:24;99876.40;;;12.00
70050;BMP180;57391;51.306;22.680;2022-09-21T09:26:00;99881.00;;;12.00
70050;BMP180;57391;51.306;22.680;2022-09-21T09:28:44;99888.20;;;12.00
70050;BMP180;57391;51.306;22.680;2022-09-21T09:31:28;99885.40;;;12.00
70050;BMP180;57391;51.306;22.680;2022-09-21T09:34:23;99885.20;;;12.00
70050;BMP180;57391;51.306;22.680;2022-09-21T09:37:09;99889.60;;;12.10
70050;BMP180;57391;51.306;22.680;2022-09-21T09:39:38;99888.00;;;12.10
70050;BMP180;57391;51.306;22.680;2022-09-21T09:42:49;99891.00;;;12.10
70050;BMP180;57391;51.306;22.680;2022-09-21T09:48:40;99893.20;;;12.10
70050;BMP180;57391;51.306;22.680;2022-09-21T09:51:11;99896.00;;;12.10
70050;BMP180;57391;51.306;22.680;2022-09-21T09:53:39;99893.80;;;12.10
70050;BMP180;57391;51.306;22.680;2022-09-21T09:56:09;99890.60;;;12.10
70050;BMP180;57391;51.306;22.680;2022-09-21T09:58:53;99897.20;;;12.10
70050;BMP180;57391;51.306;22.680;2022-09-21T10:01:43;99892.60;;;12.10
70050;BMP180;57391;51.306;22.680;2022-09-21T10:04:16;99891.20;;;12.10
70050;BMP180;57391;51.306;22.680;2022-09-21T10:06:44;99885.80;;;12.20
70050;BMP180;57391;51.306;22.680;2022-09-21T10:09:32;99882.80;;;12.26
70050;BMP180;57391;51.306;22.680;2022-09-21T10:12:18;99877.00;;;12.40
70050;BMP180;57391;51.306;22.680;2022-09-21T10:19:28;99880.20;;;12.56
70050;BMP180;57391;51.306;22.680;2022-09-21T10:22:02;99880.40;;;12.60
70050;BMP180;57391;51.306;22.680;2022-09-21T10:24:38;99884.40;;;12.62
70050;BMP180;57391;51.306;22.680;2022-09-21T10:29:40;99879.60;;;12.80
70050;BMP180;57391;51.306;22.680;2022-09-21T10:32:27;99880.20;;;12.90
70050;BMP180;57391;51.306;22.680;2022-09-21T10:37:37;99880.00;;;13.20
70050;BMP180;57391;51.306;22.680;2022-09-21T10:40:27;99875.80;;;13.20
70050;BMP180;57391;51.306;22.680;2022-09-21T10:42:57;99881.00;;;13.20
70050;BMP180;57391;51.306;22.680;2022-09-21T10:45:31;99881.80;;;13.20
70050;BMP180;57391;51.306;22.680;2022-09-21T10:48:17;99880.40;;;13.30
70050;BMP180;57391;51.306;22.680;2022-09-21T10:50:49;99879.20;;;13.32
70050;BMP180;57391;51.306;22.680;2022-09-21T10:53:28;99883.80;;;13.40
70050;BMP180;57391;51.306;22.680;2022-09-21T10:58:38;99887.00;;;13.30
70050;BMP180;57391;51.306;22.680;2022-09-21T11:01:30;99886.60;;;13.20
70050;BMP180;57391;51.306;22.680;2022-09-21T11:04:27;99884.80;;;13.20
70050;BMP180;57391;51.306;22.680;2022-09-21T11:07:33;99883.80;;;13.20
70050;BMP180;57391;51.306;22.680;2022-09-21T11:27:17;99868.00;;;14.14
70050;BMP180;57391;51.306;22.680;2022-09-21T11:30:16;99868.60;;;14.30
70050;BMP180;57391;51.306;22.680;2022-09-21T11:57:25;99859.80;;;15.20
70050;BMP180;57391;51.306;22.680;2022-09-21T12:03:07;99858.60;;;15.12
70050;BMP180;57391;51.306;22.680;2022-09-21T12:11:36;99863.80;;;15.10
70050;BMP180;57391;51.306;22.680;2022-09-21T12:22:52;99860.20;;;15.20
70050;BMP180;57391;51.306;22.680;2022-09-21T12:25:32;99856.80;;;15.30
70050;BMP180;57391;51.306;22.680;2022-09-21T12:44:27;99842.20;;;15.44
70050;BMP180;57391;51.306;22.680;2022-09-21T12:47:11;99842.20;;;15.50
70050;BMP180;57391;51.306;22.680;2022-09-21T12:49:45;99839.40;;;15.46
70050;BMP180;57391;51.306;22.680;2022-09-21T12:52:21;99847.40;;;15.50
70050;BMP180;57391;51.306;22.680;2022-09-21T13:09:16;99846.20;;;15.72
70050;BMP180;57391;51.306;22.680;2022-09-21T13:11:56;99845.20;;;15.72
70050;BMP180;57391;51.306;22.680;2022-09-21T13:14:32;99847.60;;;15.78
70050;BMP180;57391;51.306;22.680;2022-09-21T13:17:03;99844.80;;;15.88
70050;BMP180;57391;51.306;22.680;2022-09-21T13:19:34;99852.00;;;15.90
70050;BMP180;57391;51.306;22.680;2022-09-21T13:22:23;99847.60;;;16.00
70050;BMP180;57391;51.306;22.680;2022-09-21T13:28:18;99846.60;;;16.10
70050;BMP180;57391;51.306;22.680;2022-09-21T13:36:42;99849.20;;;15.88
70050;BMP180;57391;51.306;22.680;2022-09-21T13:39:17;99856.20;;;15.80
70050;BMP180;57391;51.306;22.680;2022-09-21T13:41:45;99853.00;;;15.70
70050;BMP180;57391;51.306;22.680;2022-09-21T13:47:05;99852.40;;;15.60
70050;BMP180;57391;51.306;22.680;2022-09-21T13:49:51;99850.00;;;15.50
70050;BMP180;57391;51.306;22.680;2022-09-21T13:52:29;99853.60;;;15.50
70050;BMP180;57391;51.306;22.680;2022-09-21T13:55:14;99854.40;;;15.50
70050;BMP180;57391;51.306;22.680;2022-09-21T13:57:51;99853.00;;;15.50
70050;BMP180;57391;51.306;22.680;2022-09-21T14:05:34;99858.00;;;15.34
70050;BMP180;57391;51.306;22.680;2022-09-21T14:08:31;99865.80;;;15.20
70050;BMP180;57391;51.306;22.680;2022-09-21T14:11:06;99870.20;;;15.00
70050;BMP180;57391;51.306;22.680;2022-09-21T14:13:42;99877.20;;;14.70
70050;BMP180;57391;51.306;22.680;2022-09-21T14:24:48;99875.00;;;13.90
70050;BMP180;57391;51.306;22.680;2022-09-21T14:27:30;99879.60;;;13.70
70050;BMP180;57391;51.306;22.680;2022-09-21T14:30:15;99882.20;;;13.50
70050;BMP180;57391;51.306;22.680;2022-09-21T14:35:24;99888.00;;;13.20
70050;BMP180;57391;51.306;22.680;2022-09-21T14:37:58;99888.80;;;13.10
70050;BMP180;57391;51.306;22.680;2022-09-21T14:40:32;99884.60;;;13.00
70050;BMP180;57391;51.306;22.680;2022-09-21T14:43:07;99885.40;;;12.90
70050;BMP180;57391;51.306;22.680;2022-09-21T14:52:11;99891.00;;;12.70
70050;BMP180;57391;51.306;22.680;2022-09-21T14:55:18;99893.00;;;12.60
70050;BMP180;57391;51.306;22.680;2022-09-21T14:58:37;99894.60;;;12.60
70050;BMP180;57391;51.306;22.680;2022-09-21T15:04:28;99898.60;;;12.60
70050;BMP180;57391;51.306;22.680;2022-09-21T15:07:36;99893.80;;;12.60
70050;BMP180;57391;51.306;22.680;2022-09-21T15:10:49;99897.20;;;12.60
70050;BMP180;57391;51.306;22.680;2022-09-21T15:14:02;99897.80;;;12.62
70050;BMP180;57391;51.306;22.680;2022-09-21T15:16:48;99900.60;;;12.70
70050;BMP180;57391;51.306;22.680;2022-09-21T15:19:27;99900.40;;;12.70
70050;BMP180;57391;51.306;22.680;2022-09-21T15:22:20;99903.00;;;12.70
70050;BMP180;57391;51.306;22.680;2022-09-21T15:24:56;99905.20;;;12.70
70050;BMP180;57391;51.306;22.680;2022-09-21T15:27:28;99908.60;;;12.70
70050;BMP180;57391;51.306;22.680;2022-09-21T15:30:05;99913.40;;;12.70
70050;BMP180;57391;51.306;22.680;2022-09-21T15:32:37;99912.60;;;12.70
70050;BMP180;57391;51.306;22.680;2022-09-21T15:35:20;99914.60;;;12.70
70050;BMP180;57391;51.306;22.680;2022-09-21T15:37:50;99915.00;;;12.70
70050;BMP180;57391;51.306;22.680;2022-09-21T15:40:46;99917.80;;;12.62
70050;BMP180;57391;51.306;22.680;2022-09-21T15:46:00;99916.80;;;12.60
70050;BMP180;57391;51.306;22.680;2022-09-21T15:48:37;99924.20;;;12.50
70050;BMP180;57391;51.306;22.680;2022-09-21T15:51:30;99919.00;;;12.40
70050;BMP180;57391;51.306;22.680;2022-09-21T15:56:55;99927.40;;;12.20
70050;BMP180;57391;51.306;22.680;2022-09-21T15:59:23;99921.80;;;12.20
70050;BMP180;57391;51.306;22.680;2022-09-21T16:01:54;99921.40;;;12.16
70050;BMP180;57391;51.306;22.680;2022-09-21T16:04:26;99926.00;;;12.10
70050;BMP180;57391;51.306;22.680;2022-09-21T16:07:05;99924.60;;;12.10
70050;BMP180;57391;51.306;22.680;2022-09-21T16:09:43;99923.80;;;12.10
70050;BMP180;57391;51.306;22.680;2022-09-21T16:15:15;99928.80;;;12.00
70050;BMP180;57391;51.306;22.680;2022-09-21T16:17:56;99931.60;;;12.00
70050;BMP180;57391;51.306;22.680;2022-09-21T16:20:47;99935.60;;;12.00
70050;BMP180;57391;51.306;22.680;2022-09-21T16:23:23;99937.40;;;12.00
70050;BMP180;57391;51.306;22.680;2022-09-21T16:25:58;99941.40;;;12.00
70050;BMP180;57391;51.306;22.680;2022-09-21T16:28:40;99942.60;;;12.00
70050;BMP180;57391;51.306;22.680;2022-09-21T16:31:30;99940.80;;;12.00
70050;BMP180;57391;51.306;22.680;2022-09-21T16:34:19;99940.00;;;12.00
70050;BMP180;57391;51.306;22.680;2022-09-21T16:36:50;99938.80;;;12.00
70050;BMP180;57391;51.306;22.680;2022-09-21T16:39:18;99940.00;;;11.98
70050;BMP180;57391;51.306;22.680;2022-09-21T16:41:50;99941.00;;;12.00
70050;BMP180;57391;51.306;22.680;2022-09-21T16:44:23;99944.00;;;12.00
70050;BMP180;57391;51.306;22.680;2022-09-21T16:47:01;99947.40;;;11.92
70050;BMP180;57391;51.306;22.680;2022-09-21T16:49:31;99955.60;;;11.92
70050;BMP180;57391;51.306;22.680;2022-09-21T16:52:01;99953.00;;;11.90
70050;BMP180;57391;51.306;22.680;2022-09-21T16:54:29;99950.00;;;11.90
70050;BMP180;57391;51.306;22.680;2022-09-21T16:57:00;99947.40;;;11.90
70050;BMP180;57391;51.306;22.680;2022-09-21T16:59:29;99946.60;;;11.84
70050;BMP180;57391;51.306;22.680;2022-09-21T17:01:57;99944.40;;;11.80
70050;BMP180;57391;51.306;22.680;2022-09-21T17:04:29;99945.80;;;11.80
70050;BMP180;57391;51.306;22.680;2022-09-21T17:06:57;99952.80;;;11.80
70050;BMP180;57391;51.306;22.680;2022-09-21T17:09:34;99947.80;;;11.70
70050;BMP180;57391;51.306;22.680;2022-09-21T17:12:05;99951.80;;;11.70
70050;BMP180;57391;51.306;22.680;2022-09-21T17:14:35;99949.00;;;11.70
70050;BMP180;57391;51.306;22.680;2022-09-21T17:17:24;99949.80;;;11.70
70050;BMP180;57391;51.306;22.680;2022-09-21T17:19:52;99947.80;;;11.70
70050;BMP180;57391;51.306;22.680;2022-09-21T17:22:20;99950.00;;;11.66
70050;BMP180;57391;51.306;22.680;2022-09-21T17:24:49;99954.40;;;11.62
70050;BMP180;57391;51.306;22.680;2022-09-21T17:27:19;99953.20;;;11.60
70050;BMP180;57391;51.306;22.680;2022-09-21T17:29:48;99957.40;;;11.60
70050;BMP180;57391;51.306;22.680;2022-09-21T17:32:21;99956.00;;;11.60
70050;BMP180;57391;51.306;22.680;2022-09-21T17:35:21;99956.60;;;11.60
70050;BMP180;57391;51.306;22.680;2022-09-21T17:37:52;99961.60;;;11.60
70050;BMP180;57391;51.306;22.680;2022-09-21T17:40:20;99961.40;;;11.60
70050;BMP180;57391;51.306;22.680;2022-09-21T17:42:50;99961.00;;;11.60
70050;BMP180;57391;51.306;22.680;2022-09-21T17:45:44;99959.00;;;11.54
70050;BMP180;57391;51.306;22.680;2022-09-21T17:48:20;99968.20;;;11.50
70050;BMP180;57391;51.306;22.680;2022-09-21T17:50:48;99963.20;;;11.50
70050;BMP180;57391;51.306;22.680;2022-09-21T17:53:16;99962.60;;;11.50
70050;BMP180;57391;51.306;22.680;2022-09-21T17:56:26;99965.80;;;11.50
70050;BMP180;57391;51.306;22.680;2022-09-21T17:59:07;99966.40;;;11.50
70050;BMP180;57391;51.306;22.680;2022-09-21T18:01:41;99964.20;;;11.50
70050;BMP180;57391;51.306;22.680;2022-09-21T18:04:09;99968.20;;;11.50
70050;BMP180;57391;51.306;22.680;2022-09-21T18:06:37;99969.40;;;11.50